Tehran, Iran

11:15 AM IRST on November 01, 2014 (GMT +0330)
molasadra | Change Station
CLOSE
Current Station
Personal Weather Station
Location: Tehran, TEHRAN
Elevation: 4774 ft
Nearby Weather Stations

Elev 4774 ft 35.76 °N, 51.40 °E | Updated 33 seconds ago

Overcast
Overcast
52.5 °F
Feels Like 52.5 °F
N
0.0
Wind Variable Wind from ENE
Gusts 4.0 mph

Today
High -- | Low -- °F
--% Chance of Precip.
Yesterday
High -- | Low -- °F
Precip. -- in
6:26 AM 5:09 PM
Waxing Gibbous, 64% visible
Pressure 29.95 in
Visibility 6.2 miles
Clouds Scattered Clouds 4000 ft
Overcast 10000 ft
Dew Point 35 °F
Humidity 51%
Rainfall 0.00 in
Snow Depth Not available.
UV 1 out of 12
Pollen Not available.
Air Quality Not available.
Flu Activity Not available.
METAR OIII 010730Z 15004KT 9999 SCT040 OVC100 12/02 Q1014 A2997 NOSIG

More Conditions Fewer Conditions

Pressure 29.95 in
Visibility 6.2 miles
Clouds Scattered Clouds 4000 ft
Overcast 10000 ft
Dew Point 35 °F
Humidity 51%
Rainfall 0.00 in
Snow Depth Not available.
UV 1 out of 12
Pollen Not available.
Air Quality Not available.
Flu Activity Not available.
METAR OIII 010730Z 15004KT 9999 SCT040 OVC100 12/02 Q1014 A2997 NOSIG

More Conditions Fewer Conditions

10-Day Weather Forecast

Almanac

Astronomy

Nov. 01, 2014 Rise Set
Actual Time
Civil Twilight
Nautical Twilight
Astronomical Twilight
Moon
Length of Visible Light
Length of Day
Tomorrow will be .
, % of the Moon is Illuminated

Today's Extremes

Country Highs Country Lows

Community

WunderPhotos

Upload Photos

1,766,866 photos uploaded!

WunderBlogs® & News

Nearby

Air Quality

  Air Quality AQ Index Pollutant
Not available.

Snow Depth

Station Depth Elevation

Earthquake Activity

City Distance Mag. Time & Date
Minimum magnitude displayed is 2.5.

Coastal Water Temperatures

Place Temperature

Nearby Weather Stations